createdAt,value
2023-04-23T00:00:14.442Z,145.92
2023-04-23T00:00:59.066Z,145.92
2023-04-23T00:01:44.332Z,145.92
2023-04-23T00:02:29.514Z,145.92
2023-04-23T00:03:14.232Z,142.60
2023-04-23T00:03:59.540Z,142.60
2023-04-23T00:04:45.031Z,142.60
2023-04-23T00:05:28.968Z,119.55
2023-04-23T00:06:14.335Z,161.59
2023-04-23T00:06:59.431Z,173.28
2023-04-23T00:07:44.668Z,173.28
2023-04-23T00:08:31.364Z,150.59
2023-04-23T00:09:15.273Z,150.59
2023-04-23T00:09:59.950Z,150.59
2023-04-23T00:10:44.861Z,150.59
2023-04-23T00:11:30.153Z,150.59
2023-04-23T00:12:17.378Z,150.59
2023-04-23T00:13:01.704Z,150.59
2023-04-23T00:13:45.228Z,150.59
2023-04-23T00:14:30.651Z,150.59
2023-04-23T00:15:15.621Z,150.59
2023-04-23T00:16:02.618Z,150.59
2023-04-23T00:16:46.003Z,150.59
2023-04-23T00:17:30.971Z,150.59
2023-04-23T00:18:17.660Z,150.59
2023-04-23T00:19:00.625Z,150.59
2023-04-23T00:19:45.982Z,150.59
2023-04-23T00:20:30.615Z,150.59
2023-04-23T00:21:15.891Z,150.59
2023-04-23T00:22:01.568Z,150.59
2023-04-23T00:22:45.693Z,150.59
2023-04-23T00:23:31.319Z,150.59
2023-04-23T00:24:15.864Z,150.59
2023-04-23T00:25:01.344Z,150.59
2023-04-23T00:25:46.040Z,150.59
2023-04-23T00:26:31.484Z,150.59
2023-04-23T00:27:16.296Z,150.59
2023-04-23T00:28:01.347Z,150.59
2023-04-23T00:28:46.152Z,150.59
2023-04-23T00:29:31.475Z,150.59
2023-04-23T00:30:19.044Z,150.59
2023-04-23T00:31:01.423Z,150.59
2023-04-23T00:31:46.628Z,150.59
2023-04-23T00:32:31.244Z,150.59
2023-04-23T00:33:18.035Z,150.59
2023-04-23T00:34:01.841Z,147.26
2023-04-23T00:34:46.701Z,147.26
2023-04-23T00:35:31.514Z,164.50
2023-04-23T00:36:17.320Z,164.50
2023-04-23T00:37:01.733Z,173.75
2023-04-23T00:37:46.840Z,167.47
2023-04-23T00:38:32.933Z,167.47
2023-04-23T00:39:18.677Z,167.47
2023-04-23T00:40:02.843Z,167.47
2023-04-23T00:40:47.178Z,149.65
2023-04-23T00:41:32.345Z,149.65
2023-04-23T00:42:17.491Z,149.65
2023-04-23T00:43:02.857Z,149.65
2023-04-23T00:43:47.190Z,149.65
2023-04-23T00:44:32.161Z,149.65
2023-04-23T00:45:17.443Z,135.99
2023-04-23T00:46:02.867Z,135.99
2023-04-23T00:46:47.658Z,135.99
2023-04-23T00:47:34.705Z,135.99
2023-04-23T00:48:17.721Z,135.99
2023-04-23T00:49:02.880Z,135.99
2023-04-23T00:49:47.537Z,135.99
2023-04-23T00:50:32.614Z,135.99
2023-04-23T00:51:17.420Z,152.04
2023-04-23T00:52:03.739Z,142.72
2023-04-23T00:52:48.296Z,142.72
2023-04-23T00:53:33.285Z,142.72
2023-04-23T00:54:20.134Z,142.72
2023-04-23T00:55:03.127Z,142.72
2023-04-23T00:55:50.404Z,142.72
2023-04-23T00:56:33.592Z,142.72
2023-04-23T00:57:19.778Z,142.72
2023-04-23T00:58:03.563Z,142.72
2023-04-23T00:58:48.404Z,142.72
2023-04-23T00:59:33.461Z,142.72
2023-04-23T01:00:20.166Z,142.72
2023-04-23T01:01:03.646Z,142.72
2023-04-23T01:01:50.629Z,142.72
2023-04-23T01:02:35.504Z,142.72
2023-04-23T01:03:19.689Z,142.72
2023-04-23T01:04:03.988Z,142.72
2023-04-23T01:04:48.243Z,139.61
2023-04-23T01:05:34.411Z,90.53
2023-04-23T01:06:18.922Z,115.98
2023-04-23T01:07:04.037Z,334.30
2023-04-23T01:07:49.025Z,331.18
2023-04-23T01:08:34.455Z,341.28
2023-04-23T01:09:19.451Z,337.29
2023-04-23T01:10:04.304Z,336.29
2023-04-23T01:10:49.005Z,338.29
2023-04-23T01:11:34.214Z,328.31
2023-04-23T01:12:20.341Z,338.29
2023-04-23T01:13:04.481Z,336.29
2023-04-23T01:13:49.539Z,144.70
2023-04-23T01:14:34.668Z,336.29
2023-04-23T01:15:19.652Z,340.28
2023-04-23T01:16:04.519Z,351.26
2023-04-23T01:16:49.526Z,343.28
2023-04-23T01:17:34.566Z,339.29
2023-04-23T01:18:20.157Z,347.27
2023-04-23T01:19:04.857Z,340.28
2023-04-23T01:19:49.813Z,332.30
2023-04-23T01:20:34.839Z,146.69
2023-04-23T01:21:20.102Z,327.31
2023-04-23T01:22:04.799Z,331.18
2023-04-23T01:22:50.036Z,339.16
2023-04-23T01:23:34.850Z,332.18
2023-04-23T01:24:20.143Z,327.19
2023-04-23T01:25:05.182Z,330.19
2023-04-23T01:25:50.237Z,326.20
2023-04-23T01:26:35.199Z,338.17
2023-04-23T01:27:20.149Z,329.19
2023-04-23T01:28:05.550Z,335.17
2023-04-23T01:28:50.391Z,330.19
2023-04-23T01:29:35.625Z,332.18
2023-04-23T01:30:20.573Z,334.18
2023-04-23T01:31:05.490Z,338.17
2023-04-23T01:31:50.586Z,330.19
2023-04-23T01:32:35.583Z,337.69
2023-04-23T01:33:20.705Z,337.17
2023-04-23T01:34:05.660Z,335.17
2023-04-23T01:34:50.714Z,337.17
2023-04-23T01:35:35.659Z,337.17
2023-04-23T01:36:21.436Z,336.17
2023-04-23T01:37:05.878Z,329.19
2023-04-23T01:37:50.935Z,329.19
2023-04-23T01:38:36.416Z,335.17
2023-04-23T01:39:21.867Z,329.72
2023-04-23T01:40:06.102Z,332.18
2023-04-23T01:40:51.064Z,330.89
2023-04-23T01:41:36.218Z,90.59
2023-04-23T01:42:22.440Z,333.88
2023-04-23T01:43:06.543Z,337.87
2023-04-23T01:43:51.386Z,337.17
2023-04-23T01:44:36.522Z,334.18
2023-04-23T01:45:26.076Z,332.18
2023-04-23T01:46:07.093Z,340.16
2023-04-23T01:46:51.522Z,155.62
2023-04-23T01:47:36.592Z,338.17
2023-04-23T01:48:22.312Z,335.17
2023-04-23T01:49:06.787Z,335.17
2023-04-23T01:49:51.876Z,331.18
2023-04-23T01:50:37.104Z,334.18
2023-04-23T01:51:22.250Z,334.02
2023-04-23T01:52:07.363Z,332.71
2023-04-23T01:52:51.709Z,334.18
2023-04-23T01:53:36.711Z,337.17
2023-04-23T01:54:22.381Z,332.18
2023-04-23T01:55:07.032Z,118.71
2023-04-23T01:55:51.982Z,327.19
2023-04-23T01:56:37.044Z,89.78
2023-04-23T01:57:22.411Z,104.74
2023-04-23T01:58:07.270Z,118.71
2023-04-23T01:58:52.616Z,104.65
2023-04-23T01:59:36.980Z,86.66
2023-04-23T02:00:22.637Z,91.59
2023-04-23T02:01:08.397Z,104.65
2023-04-23T02:01:52.800Z,94.63
2023-04-23T02:02:37.876Z,84.67
2023-04-23T02:04:07.602Z,78.69
2023-04-23T02:04:52.457Z,78.74
2023-04-23T02:05:37.284Z,77.65
2023-04-23T02:06:23.547Z,181.38
2023-04-23T02:07:07.939Z,137.25
2023-04-23T02:07:52.577Z,125.88
2023-04-23T02:08:37.734Z,125.88
2023-04-23T02:09:24.635Z,79.92
2023-04-23T02:10:08.216Z,79.92
2023-04-23T02:10:53.220Z,79.92
2023-04-23T02:11:38.484Z,79.92
2023-04-23T02:12:24.157Z,79.92
2023-04-23T02:13:08.696Z,79.92
2023-04-23T02:13:53.604Z,79.92
2023-04-23T02:14:38.729Z,79.92
2023-04-23T02:15:23.966Z,79.92
2023-04-23T02:16:08.866Z,79.92
2023-04-23T02:16:55.433Z,79.92
2023-04-23T02:17:38.640Z,99.77
2023-04-23T02:18:23.860Z,100.95
2023-04-23T02:19:08.732Z,129.75
2023-04-23T02:19:53.788Z,165.18
2023-04-23T02:20:38.876Z,165.18
2023-04-23T02:21:23.690Z,165.51
2023-04-23T02:22:09.120Z,161.55
2023-04-23T02:22:54.397Z,152.17
2023-04-23T02:23:38.867Z,151.88
2023-04-23T02:24:24.361Z,152.74
2023-04-23T02:25:09.252Z,146.85
2023-04-23T02:25:54.443Z,159.29
2023-04-23T02:26:39.406Z,155.75
2023-04-23T02:27:24.491Z,155.75
2023-04-23T02:28:09.756Z,165.68
2023-04-23T02:28:54.248Z,144.27
2023-04-23T02:29:39.684Z,153.72
2023-04-23T02:30:24.811Z,156.22
2023-04-23T02:31:09.554Z,149.40
2023-04-23T02:31:54.635Z,149.27
2023-04-23T02:32:39.800Z,149.27
2023-04-23T02:33:24.731Z,170.18
2023-04-23T02:34:09.803Z,169.17
2023-04-23T02:34:54.713Z,156.26
2023-04-23T02:35:39.664Z,154.57
2023-04-23T02:36:24.629Z,146.92
2023-04-23T02:37:09.895Z,154.57
2023-04-23T02:37:55.146Z,151.08
2023-04-23T02:38:40.511Z,149.40
2023-04-23T02:39:25.382Z,149.40
2023-04-23T02:40:10.013Z,157.95
2023-04-23T02:40:55.819Z,148.62
2023-04-23T02:41:40.329Z,162.83
2023-04-23T02:42:26.043Z,99.55
2023-04-23T02:43:11.164Z,145.21
2023-04-23T02:43:55.718Z,129.74
2023-04-23T02:44:40.772Z,128.19
2023-04-23T02:45:27.769Z,120.30
2023-04-23T02:46:10.661Z,86.89
2023-04-23T02:46:55.652Z,118.25
2023-04-23T02:47:40.809Z,117.53
2023-04-23T02:48:25.937Z,115.19
2023-04-23T02:49:11.056Z,110.17
2023-04-23T02:49:57.086Z,112.21
2023-04-23T02:50:42.744Z,112.21
2023-04-23T02:51:26.085Z,116.09
2023-04-23T02:52:11.152Z,110.33
2023-04-23T02:52:56.068Z,120.30
2023-04-23T02:53:41.384Z,144.37
2023-04-23T02:54:26.359Z,101.20
2023-04-23T02:55:11.494Z,190.06
2023-04-23T02:55:56.440Z,170.79
2023-04-23T02:56:41.571Z,163.18
2023-04-23T02:57:26.625Z,108.36
2023-04-23T02:58:11.359Z,135.26
2023-04-23T02:58:56.427Z,141.96
2023-04-23T02:59:41.594Z,150.45
2023-04-23T03:00:26.627Z,144.41
2023-04-23T03:01:11.657Z,122.41
2023-04-23T03:01:56.719Z,128.35
2023-04-23T03:02:41.607Z,138.30
2023-04-23T03:03:27.082Z,127.62
2023-04-23T03:04:12.343Z,134.50
2023-04-23T03:04:56.812Z,123.83
2023-04-23T03:05:42.440Z,122.82
2023-04-23T03:06:26.879Z,122.82
2023-04-23T03:07:11.843Z,130.51
2023-04-23T03:07:57.941Z,128.35
2023-04-23T03:08:41.738Z,122.34
2023-04-23T03:09:27.411Z,122.34
2023-04-23T03:10:12.777Z,122.34
2023-04-23T03:10:57.449Z,122.34
2023-04-23T03:11:43.095Z,168.12
2023-04-23T03:12:27.334Z,100.00
2023-04-23T03:13:12.331Z,165.13
2023-04-23T03:13:57.595Z,138.78
2023-04-23T03:14:42.676Z,142.93
2023-04-23T03:15:27.987Z,142.93
2023-04-23T03:16:13.350Z,62.31
2023-04-23T03:16:57.718Z,135.15
2023-04-23T03:17:42.998Z,137.27
2023-04-23T03:18:27.572Z,135.32
2023-04-23T03:19:12.946Z,167.17
2023-04-23T03:19:58.923Z,167.17
2023-04-23T03:20:42.845Z,141.52
2023-04-23T03:21:28.007Z,125.13
2023-04-23T03:22:13.185Z,125.13
2023-04-23T03:22:58.910Z,131.21
2023-04-23T03:23:43.086Z,119.65
2023-04-23T03:24:28.682Z,130.54
2023-04-23T03:25:13.612Z,130.54
2023-04-23T03:25:58.884Z,119.23
2023-04-23T03:26:44.858Z,119.23
2023-04-23T03:27:29.500Z,140.87
2023-04-23T03:28:13.528Z,140.87
2023-04-23T03:28:58.700Z,78.41
2023-04-23T03:29:43.691Z,132.54
2023-04-23T03:30:29.029Z,132.54
2023-04-23T03:31:13.677Z,132.61
2023-04-23T03:31:59.108Z,132.61
2023-04-23T03:32:43.907Z,132.61
2023-04-23T03:33:29.016Z,146.37
2023-04-23T03:34:14.380Z,146.47
2023-04-23T03:34:59.228Z,161.09
2023-04-23T03:35:44.004Z,166.41
2023-04-23T03:36:29.034Z,156.17
2023-04-23T03:37:14.084Z,142.25
2023-04-23T03:37:59.210Z,140.81
2023-04-23T03:38:44.103Z,125.88
2023-04-23T03:39:29.338Z,135.86
2023-04-23T03:40:15.045Z,116.04
2023-04-23T03:40:59.686Z,128.38
2023-04-23T03:41:44.829Z,129.76
2023-04-23T03:42:29.692Z,99.71
2023-04-23T03:43:15.433Z,127.68
2023-04-23T03:43:59.532Z,124.45
2023-04-23T03:44:45.987Z,94.97
2023-04-23T03:45:31.663Z,94.97
2023-04-23T03:46:14.857Z,145.70
2023-04-23T03:46:59.738Z,135.32
2023-04-23T03:47:45.235Z,143.49
2023-04-23T03:48:29.793Z,145.65
2023-04-23T03:49:15.384Z,139.40
2023-04-23T03:49:59.839Z,134.62
2023-04-23T03:50:45.054Z,131.15
2023-04-23T03:51:30.508Z,143.64
2023-04-23T03:52:15.273Z,156.91
2023-04-23T03:53:00.186Z,137.27
2023-04-23T03:53:44.920Z,147.81
2023-04-23T03:54:30.734Z,133.93
2023-04-23T03:55:16.056Z,135.32
2023-04-23T03:56:01.429Z,93.32
2023-04-23T03:56:47.723Z,102.32
2023-04-23T03:57:30.805Z,129.07
2023-04-23T03:58:15.708Z,129.21
2023-04-23T03:59:01.649Z,129.21
2023-04-23T03:59:45.787Z,134.65
2023-04-23T04:00:30.740Z,128.53
2023-04-23T04:01:15.809Z,141.52
2023-04-23T04:02:01.505Z,128.54
2023-04-23T04:02:45.795Z,131.23
2023-04-23T04:03:31.779Z,103.39
2023-04-23T04:04:16.632Z,331.04
2023-04-23T04:05:03.424Z,331.04
2023-04-23T04:05:46.478Z,119.69
2023-04-23T04:06:31.937Z,119.69
2023-04-23T04:07:16.966Z,332.28
2023-04-23T04:08:01.508Z,332.28
2023-04-23T04:08:47.497Z,332.28
2023-04-23T04:09:31.420Z,149.23
2023-04-23T04:10:17.129Z,149.23
2023-04-23T04:11:02.024Z,149.23
2023-04-23T04:11:46.696Z,147.13
2023-04-23T04:12:32.263Z,147.13
2023-04-23T04:13:17.030Z,147.13
2023-04-23T04:14:01.894Z,129.21
2023-04-23T04:14:49.871Z,113.50
2023-04-23T04:15:32.702Z,117.95
2023-04-23T04:16:19.271Z,117.95
2023-04-23T04:17:02.087Z,142.23
2023-04-23T04:17:47.758Z,144.34
2023-04-23T04:18:32.578Z,134.65
2023-04-23T04:19:17.577Z,125.13
2023-04-23T04:20:02.322Z,122.55
2023-04-23T04:20:47.571Z,117.22
2023-04-23T04:21:32.640Z,117.22
2023-04-23T04:22:20.269Z,117.22
2023-04-23T04:23:03.341Z,117.22
2023-04-23T04:23:48.017Z,117.22
2023-04-23T04:24:33.039Z,117.22
2023-04-23T04:25:18.020Z,117.22
2023-04-23T04:26:03.226Z,117.22
2023-04-23T04:26:48.129Z,117.22
2023-04-23T04:27:33.257Z,117.22
2023-04-23T04:28:19.162Z,117.22
2023-04-23T04:29:03.098Z,110.15
2023-04-23T04:29:47.646Z,142.25
2023-04-23T04:30:32.999Z,154.96
2023-04-23T04:31:18.208Z,141.45
2023-04-23T04:32:04.870Z,124.01
2023-04-23T04:32:48.294Z,119.03
2023-04-23T04:33:35.172Z,119.03
2023-04-23T04:34:18.689Z,119.03
2023-04-23T04:35:06.261Z,119.03
2023-04-23T04:35:49.009Z,119.03
2023-04-23T04:36:33.794Z,119.03
2023-04-23T04:37:18.874Z,131.21
2023-04-23T04:38:03.870Z,131.21
2023-04-23T04:38:49.082Z,131.21
2023-04-23T04:39:34.092Z,131.21
2023-04-23T04:40:19.569Z,131.21
2023-04-23T04:41:05.232Z,131.21
2023-04-23T04:41:49.054Z,131.21
2023-04-23T04:42:34.365Z,131.21
2023-04-23T04:43:19.321Z,131.21
2023-04-23T04:44:04.199Z,131.21
2023-04-23T04:44:49.278Z,131.21
2023-04-23T04:45:34.330Z,131.21
2023-04-23T04:46:19.508Z,131.21
2023-04-23T04:47:06.231Z,131.21
2023-04-23T04:47:49.429Z,131.21
2023-04-23T04:48:34.926Z,131.21
2023-04-23T04:49:20.006Z,131.21
2023-04-23T04:50:04.698Z,131.21
2023-04-23T04:50:49.691Z,131.21
2023-04-23T04:51:34.726Z,131.21
2023-04-23T04:52:19.573Z,131.21
2023-04-23T04:53:04.899Z,131.21
2023-04-23T04:53:49.569Z,131.21
2023-04-23T04:54:35.118Z,131.21
2023-04-23T04:55:19.757Z,131.21
2023-04-23T04:56:05.228Z,131.21
2023-04-23T04:56:49.892Z,131.21
2023-04-23T04:57:35.442Z,131.21
2023-04-23T04:58:20.288Z,131.21
2023-04-23T04:59:05.358Z,131.21
2023-04-23T04:59:50.427Z,131.21
2023-04-23T05:00:35.390Z,131.21
2023-04-23T05:01:20.452Z,131.21
2023-04-23T05:02:05.690Z,131.21
2023-04-23T05:02:51.050Z,131.21
2023-04-23T05:03:35.813Z,131.21
2023-04-23T05:04:21.113Z,131.21
2023-04-23T05:05:05.697Z,131.21
2023-04-23T05:05:51.128Z,131.21
2023-04-23T05:06:35.930Z,131.21
2023-04-23T05:07:20.945Z,131.21
2023-04-23T05:08:06.030Z,131.21
2023-04-23T05:08:50.797Z,131.21
2023-04-23T05:09:36.036Z,131.21
2023-04-23T05:10:21.110Z,131.21
2023-04-23T05:11:06.159Z,131.21
2023-04-23T05:11:51.198Z,131.21
2023-04-23T05:12:36.364Z,131.21
2023-04-23T05:13:21.535Z,131.21
2023-04-23T05:14:06.283Z,131.21
2023-04-23T05:14:52.310Z,131.21
2023-04-23T05:15:36.588Z,131.21
2023-04-23T05:16:21.803Z,131.21
2023-04-23T05:17:06.499Z,131.21
2023-04-23T05:18:36.713Z,131.21
2023-04-23T05:19:22.289Z,131.21
2023-04-23T05:20:06.941Z,131.21
2023-04-23T05:20:51.984Z,131.21
2023-04-23T05:21:36.838Z,131.21
2023-04-23T05:22:22.338Z,131.21
2023-04-23T05:23:07.149Z,131.21
2023-04-23T05:23:52.111Z,131.21
2023-04-23T05:24:37.478Z,131.21
2023-04-23T05:25:22.327Z,131.21
2023-04-23T05:26:07.417Z,131.21
2023-04-23T05:26:52.230Z,131.21
2023-04-23T05:27:37.293Z,131.21
2023-04-23T05:28:22.762Z,131.21
2023-04-23T05:29:07.483Z,131.21
2023-04-23T05:29:52.743Z,131.21
2023-04-23T05:30:37.765Z,131.21
2023-04-23T05:31:22.858Z,131.21
2023-04-23T05:32:07.934Z,131.21
2023-04-23T05:32:52.711Z,131.21
2023-04-23T05:33:49.125Z,131.21
2023-04-23T05:34:22.799Z,131.21
2023-04-23T05:35:07.645Z,131.21
2023-04-23T05:35:52.903Z,131.21
2023-04-23T05:36:37.862Z,131.21
2023-04-23T05:37:23.056Z,131.21
2023-04-23T05:38:07.886Z,131.21
2023-04-23T05:38:53.372Z,131.21
2023-04-23T05:39:38.186Z,131.21
2023-04-23T05:40:25.497Z,131.21
2023-04-23T05:41:08.518Z,131.21
2023-04-23T05:41:54.013Z,131.21
2023-04-23T05:42:38.508Z,131.21
2023-04-23T05:43:23.682Z,131.21
2023-04-23T05:44:08.580Z,131.21
2023-04-23T05:44:53.576Z,131.21
2023-04-23T05:45:38.648Z,131.21
2023-04-23T05:46:23.844Z,131.21
2023-04-23T05:47:08.812Z,131.21
2023-04-23T05:47:54.005Z,131.21
2023-04-23T05:48:38.871Z,131.21
2023-04-23T05:49:24.020Z,131.21
2023-04-23T05:50:09.114Z,131.21
2023-04-23T05:50:54.019Z,131.21
2023-04-23T05:51:39.973Z,131.21
2023-04-23T05:52:25.071Z,131.21
2023-04-23T05:53:09.843Z,131.21
2023-04-23T05:53:54.877Z,131.21
2023-04-23T05:54:39.565Z,131.21
2023-04-23T05:55:24.655Z,131.21
2023-04-23T05:56:09.874Z,131.21
2023-04-23T05:56:54.849Z,131.21
2023-04-23T05:57:39.602Z,131.21
2023-04-23T05:58:24.799Z,131.21
2023-04-23T05:59:10.388Z,131.21
2023-04-23T05:59:55.334Z,131.21
2023-04-23T06:00:39.965Z,131.21
2023-04-23T06:01:25.023Z,131.21
2023-04-23T06:02:10.099Z,131.21
2023-04-23T06:02:55.608Z,131.21
2023-04-23T06:03:40.119Z,131.21
2023-04-23T06:04:25.394Z,131.21
2023-04-23T06:05:10.389Z,131.21
2023-04-23T06:05:55.392Z,131.21
2023-04-23T06:06:40.286Z,131.21
2023-04-23T06:07:25.272Z,131.21
2023-04-23T06:08:10.334Z,131.21
2023-04-23T06:08:55.281Z,131.21
2023-04-23T06:09:40.486Z,131.21
2023-04-23T06:10:25.394Z,131.21
2023-04-23T06:11:10.247Z,131.21
2023-04-23T06:11:55.737Z,131.21
2023-04-23T06:12:40.543Z,131.21
2023-04-23T06:13:25.419Z,131.21
2023-04-23T06:14:10.572Z,131.21
2023-04-23T06:14:55.769Z,131.21
2023-04-23T06:15:40.803Z,131.21
2023-04-23T06:16:25.776Z,131.21
2023-04-23T06:17:11.227Z,131.21
2023-04-23T06:17:56.026Z,131.21
2023-04-23T06:18:40.781Z,131.21
2023-04-23T06:19:25.965Z,131.21
2023-04-23T06:20:10.872Z,131.21
2023-04-23T06:20:56.088Z,131.21
2023-04-23T06:21:40.934Z,131.21
2023-04-23T06:22:26.214Z,131.21
2023-04-23T06:23:11.692Z,131.21
2023-04-23T06:23:56.516Z,131.21
2023-04-23T06:24:41.555Z,131.21
2023-04-23T06:25:26.471Z,131.21
2023-04-23T06:26:11.599Z,131.21
2023-04-23T06:26:56.530Z,131.21
2023-04-23T06:27:41.582Z,131.21
2023-04-23T06:28:26.640Z,131.21
2023-04-23T06:29:11.706Z,131.21
2023-04-23T06:29:57.138Z,131.21
2023-04-23T06:30:42.233Z,131.21
2023-04-23T06:31:27.104Z,131.21
2023-04-23T06:32:11.814Z,131.21
2023-04-23T06:32:56.998Z,131.21
2023-04-23T06:33:42.244Z,131.21
2023-04-23T06:34:26.988Z,131.21
2023-04-23T06:35:12.154Z,131.21
2023-04-23T06:35:57.328Z,131.21
2023-04-23T06:36:42.370Z,131.21
2023-04-23T06:37:29.220Z,131.21
2023-04-23T06:38:12.270Z,131.21
2023-04-23T06:38:57.300Z,131.21
2023-04-23T06:39:42.637Z,131.21
2023-04-23T06:40:27.539Z,131.21
2023-04-23T06:41:13.399Z,131.21
2023-04-23T06:41:57.455Z,131.21
2023-04-23T06:42:43.461Z,131.21
2023-04-23T06:43:27.561Z,131.21
2023-04-23T06:44:12.805Z,131.21
2023-04-23T06:44:57.782Z,131.21
2023-04-23T06:45:42.951Z,131.21
2023-04-23T06:46:28.015Z,131.21
2023-04-23T06:47:13.043Z,131.21
2023-04-23T06:47:58.336Z,131.21
2023-04-23T06:48:42.961Z,131.21
2023-04-23T06:49:28.115Z,131.21
2023-04-23T06:50:13.428Z,131.21
2023-04-23T06:50:58.227Z,131.21
2023-04-23T06:51:43.568Z,131.21
2023-04-23T06:52:28.517Z,131.21
2023-04-23T06:53:13.921Z,131.21
2023-04-23T06:53:58.557Z,131.21
2023-04-23T06:54:43.919Z,131.21
2023-04-23T06:55:28.674Z,131.21
2023-04-23T06:56:13.422Z,131.21
2023-04-23T06:56:58.684Z,131.21
2023-04-23T06:57:43.742Z,131.21
2023-04-23T06:58:28.795Z,131.21
2023-04-23T06:59:14.458Z,131.21
2023-04-23T06:59:59.188Z,131.21
2023-04-23T07:00:44.006Z,131.21
2023-04-23T07:01:29.582Z,131.21
2023-04-23T07:02:14.007Z,131.21
2023-04-23T07:02:58.961Z,131.21
2023-04-23T07:03:45.052Z,131.21
2023-04-23T07:04:29.090Z,131.21
2023-04-23T07:05:14.413Z,131.21
2023-04-23T07:05:59.371Z,131.21
2023-04-23T07:06:44.321Z,131.21
2023-04-23T07:07:29.311Z,131.21
2023-04-23T07:08:15.042Z,131.21
2023-04-23T07:08:59.288Z,131.21
2023-04-23T07:09:44.143Z,131.21
2023-04-23T07:10:29.409Z,131.21
2023-04-23T07:11:14.601Z,131.21
2023-04-23T07:11:59.683Z,131.21
2023-04-23T07:12:44.477Z,131.21
2023-04-23T07:13:29.632Z,131.21
2023-04-23T07:14:15.146Z,131.21
2023-04-23T07:14:59.875Z,131.21
2023-04-23T07:15:44.824Z,131.21
2023-04-23T07:16:30.065Z,131.21
2023-04-23T07:17:14.895Z,131.21
2023-04-23T07:17:59.704Z,131.21
2023-04-23T07:18:44.943Z,131.21
2023-04-23T07:19:30.156Z,131.21
2023-04-23T07:20:15.313Z,131.21
2023-04-23T07:21:00.198Z,131.21
2023-04-23T07:21:45.505Z,131.21
2023-04-23T07:22:30.515Z,131.21
2023-04-23T07:23:15.532Z,131.21
2023-04-23T07:24:00.185Z,131.21
2023-04-23T07:24:44.868Z,131.21
2023-04-23T07:25:30.481Z,131.21
2023-04-23T07:26:15.536Z,131.21
2023-04-23T07:27:00.454Z,131.21
2023-04-23T07:27:45.772Z,131.21
2023-04-23T07:28:30.467Z,131.21
2023-04-23T07:29:15.954Z,131.21
2023-04-23T07:30:00.267Z,131.21
2023-04-23T07:30:45.324Z,131.21
2023-04-23T07:31:30.501Z,131.21
2023-04-23T07:32:15.624Z,131.21
2023-04-23T07:33:00.551Z,131.21
2023-04-23T07:33:45.754Z,131.21
2023-04-23T07:34:30.608Z,131.21
2023-04-23T07:35:17.412Z,131.21
2023-04-23T07:36:00.529Z,131.21
2023-04-23T07:36:45.786Z,131.21
2023-04-23T07:37:31.364Z,131.21
2023-04-23T07:38:16.058Z,131.21
2023-04-23T07:39:01.366Z,131.21
2023-04-23T07:39:46.358Z,131.21
2023-04-23T07:40:31.062Z,131.21
2023-04-23T07:41:17.046Z,131.21
2023-04-23T07:42:01.174Z,131.21
2023-04-23T07:42:46.840Z,131.21
2023-04-23T07:43:31.388Z,131.21
2023-04-23T07:44:16.404Z,131.21
2023-04-23T07:45:01.577Z,131.21
2023-04-23T07:45:46.638Z,131.21
2023-04-23T07:46:31.908Z,131.21
2023-04-23T07:47:16.803Z,131.21
2023-04-23T07:48:01.981Z,131.21
2023-04-23T07:48:46.789Z,131.21
2023-04-23T07:49:31.951Z,131.21
2023-04-23T07:50:16.689Z,131.21
2023-04-23T07:51:01.778Z,131.21
2023-04-23T07:51:46.902Z,131.21
2023-04-23T07:52:32.391Z,131.21
2023-04-23T07:53:17.390Z,131.21
2023-04-23T07:54:01.784Z,131.21
2023-04-23T07:54:47.440Z,131.21
2023-04-23T07:55:31.944Z,131.21
2023-04-23T07:56:17.109Z,131.21
2023-04-23T07:57:01.911Z,131.21
2023-04-23T07:57:47.170Z,131.21
2023-04-23T07:58:32.515Z,131.21
2023-04-23T07:59:17.079Z,131.21
2023-04-23T08:00:01.928Z,131.21
2023-04-23T08:00:47.081Z,131.21
2023-04-23T08:01:32.137Z,131.21
2023-04-23T08:02:17.281Z,131.21
2023-04-23T08:03:02.526Z,131.21
2023-04-23T08:03:47.681Z,131.21
2023-04-23T08:04:32.545Z,131.21
2023-04-23T08:05:17.794Z,131.21
2023-04-23T08:06:02.266Z,131.21
2023-04-23T08:06:47.728Z,131.21
2023-04-23T08:07:33.507Z,131.21
2023-04-23T08:08:17.767Z,131.21
2023-04-23T08:09:02.626Z,131.21
2023-04-23T08:09:48.679Z,131.21
2023-04-23T08:10:32.912Z,131.21
2023-04-23T08:11:18.821Z,131.21
2023-04-23T08:12:03.167Z,131.21
2023-04-23T08:12:48.253Z,131.21
2023-04-23T08:13:33.340Z,131.21
2023-04-23T08:14:18.653Z,131.21
2023-04-23T08:15:03.277Z,131.21
2023-04-23T08:15:48.544Z,131.21
2023-04-23T08:16:33.646Z,131.21
2023-04-23T08:17:19.142Z,131.21
2023-04-23T08:18:03.540Z,131.21
2023-04-23T08:19:03.724Z,131.21
2023-04-23T08:19:34.000Z,131.21
2023-04-23T08:20:18.949Z,131.21
2023-04-23T08:21:03.798Z,131.21
2023-04-23T08:21:49.347Z,131.21
2023-04-23T08:22:33.715Z,131.21
2023-04-23T08:23:19.528Z,131.21
2023-04-23T08:24:03.717Z,152.94
2023-04-23T08:24:48.944Z,152.94
2023-04-23T08:25:33.516Z,152.94
2023-04-23T08:26:19.317Z,152.94
2023-04-23T08:27:05.303Z,152.94
2023-04-23T08:27:50.561Z,152.94
2023-04-23T08:28:34.461Z,152.94
2023-04-23T08:29:19.432Z,152.94
2023-04-23T08:30:04.572Z,152.94
2023-04-23T08:30:49.532Z,152.94
2023-04-23T08:31:34.701Z,152.94
2023-04-23T08:32:20.041Z,152.94
2023-04-23T08:33:04.878Z,152.94
2023-04-23T08:33:49.692Z,152.94
2023-04-23T08:34:35.771Z,152.94
2023-04-23T08:35:20.542Z,152.94
2023-04-23T08:36:05.032Z,152.94
2023-04-23T08:36:51.725Z,152.94
2023-04-23T08:37:35.345Z,152.94
2023-04-23T08:38:20.502Z,152.94
2023-04-23T08:39:05.249Z,152.94
2023-04-23T08:39:50.201Z,152.94
2023-04-23T08:40:35.719Z,152.94
2023-04-23T08:41:20.625Z,152.94
2023-04-23T08:42:05.587Z,152.94
2023-04-23T08:42:50.941Z,152.94
2023-04-23T08:43:35.423Z,152.94
2023-04-23T08:44:21.438Z,152.94
2023-04-23T08:45:06.263Z,152.94
2023-04-23T08:45:50.892Z,152.94
2023-04-23T08:46:35.521Z,152.86
2023-04-23T08:47:20.357Z,167.86
2023-04-23T08:48:08.005Z,167.86
2023-04-23T08:48:50.818Z,142.47
2023-04-23T08:49:35.649Z,158.04
2023-04-23T08:50:21.201Z,157.95
2023-04-23T08:51:05.686Z,132.67
2023-04-23T08:51:51.146Z,132.67
2023-04-23T08:52:36.374Z,132.67
2023-04-23T08:53:21.529Z,132.67
2023-04-23T08:54:06.077Z,132.67
2023-04-23T08:54:51.440Z,132.67
2023-04-23T08:55:36.660Z,132.67
2023-04-23T08:56:21.963Z,132.67
2023-04-23T08:57:06.619Z,132.67
2023-04-23T08:57:51.764Z,132.67
2023-04-23T08:58:36.826Z,132.67
2023-04-23T08:59:22.091Z,132.67
2023-04-23T09:00:06.735Z,183.85
2023-04-23T09:00:51.563Z,174.40
2023-04-23T09:01:37.425Z,180.75
2023-04-23T09:02:22.409Z,168.81
2023-04-23T09:03:06.845Z,155.41
2023-04-23T09:03:51.909Z,181.07
2023-04-23T09:04:36.868Z,188.54
2023-04-23T09:05:21.837Z,188.54
2023-04-23T09:06:07.193Z,191.87
2023-04-23T09:06:52.285Z,188.37
2023-04-23T09:07:37.255Z,190.20
2023-04-23T09:08:22.148Z,188.16
2023-04-23T09:09:07.209Z,189.28
2023-04-23T09:09:52.156Z,190.60
2023-04-23T09:10:37.120Z,174.26
2023-04-23T09:11:22.268Z,171.54
2023-04-23T09:12:07.324Z,169.72
2023-04-23T09:12:52.266Z,173.33
2023-04-23T09:13:37.268Z,162.46
2023-04-23T09:14:22.805Z,164.28
2023-04-23T09:15:08.079Z,153.09
2023-04-23T09:15:52.767Z,155.36
2023-04-23T09:16:38.143Z,162.50
2023-04-23T09:17:22.872Z,160.56
2023-04-23T09:18:07.557Z,175.17
2023-04-23T09:18:52.674Z,164.78
2023-04-23T09:19:37.929Z,156.67
2023-04-23T09:20:22.934Z,156.67
2023-04-23T09:21:07.626Z,150.32
2023-04-23T09:21:53.037Z,146.92
2023-04-23T09:22:37.611Z,79.95
2023-04-23T09:23:22.889Z,340.75
2023-04-23T09:24:08.360Z,343.75